OINN 
Noshahr Airport
Iran 
ICAOIATAStatus
OINNNSHOperational
LatitudeLongitude
36° 39' 47" N51° 27' 52" E
36.66330051.464699
Local Time (DST+5)UTC (GMT+4)
04-20-2014 05:49 pm04-20-2014 13:19
Sunrise-SunsetLocalUTC
Begin Civil Twilight05:55 am01:25
Sunrise06:22 am01:52
Sunset07:44 pm15:14
End Civil Twilight08:11 pm15:41

Current Weather

METARObservedFlight Conditions

OINN 201300Z 11010KT CAVOK 19/12 Q1010

Sun, Apr 20, 2014 @ 13:00 UTC(Z)

(19 Minutes ago)

VFR

(Visual Flight Rules)

WindVisibilityCloudsConditions
110° at 10 knots (19 kph)
10 km or more
  • Clear skies
  • No significant weather
TemperaturesReadingsPrecipitation
Current Temp19°C (66°F)
Dewpoint12°C (54°F)
Humidity64%
Altimeter29.82"Hg
Sea Level Pressure1010mb
None Recorded

Additional weather within a 92.6km radius of OINN

Location METAR
OINR

75km W (292°)

19 minutes ago
VFR VFR    MVFR MVFR    IFR IFR    LIFR LIFR    Unknown Unknown

Previous 24 hour Weather Graphs

  Loading...

CheckWX.com is intended as a tool to help pilots better visualize weather data.   It is not intended as a substitute for an official weather briefing obtained from a Flight Service Station.
CheckWX.com does not meet the FAA requirements for an official pre-flight weather briefing.   Therefore, it's important that pilots still call and obtain an official FSS pre-flight weather briefing.